Startpagina
METAR-TAF:

METAR-TAF

Vliegvelden :

Internationale luchthaven van Bahrein

Bahrein, Bahrein

breedte: 26-16N, lengte: 050-39E, hoogte: 2 m

Actueel weer

Dit bericht is 1 uur en het 5 minuten geleden gemaakt, om 21:00 UTC
Wind 5 kt uit het westen
Temperatuur 36°C
Vochtigheid 47%
Druk 994 hPa
Zicht 10 km of meer
geen wolken onder 1500 m en geen cumulonimbus

METAR: OBBI 162100Z 28005KT CAVOK 36/23 Q0994 NOSIG

Tijdstip: 01:05 (22:05 UTC)

Verwachting

Dit bericht is 5 uur en het 5 minuten geleden gemaakt, om 17:00 UTC
Verwachting geldig van 16 om 18 UTC tot 18 om 00 UTC
Wind 10 kt uit het noordwesten
Zicht 10 km of meer
geen wolken onder 1500 m en geen cumulonimbus
Wijzigt naar
van 17 om 06 UTC tot 17 om 08 UTC
Wind 15 kt uit het noordnoordwesten met uitschieters tot 25 kt
Wijzigt naar
van 17 om 15 UTC tot 17 om 17 UTC
Wind 12 kt uit het noorden

TAF: OBBI 161700Z 1618/1800 32010KT CAVOK BECMG 1706/1708 33015G25KT BECMG 1715/1717 35012KT

Waarnemingen en weersverwachtingen van meer dan 4000 vliegvelden (METAR en TAF).

De beschikbare stations zijn de gele en rode punten op de kaart.

Ga met uw muis naar het station om de naam te zien.

Klik dan om waarnemingen en weersverwachtingen te zien.

kaart wijzigen: klik op de groene knoppen met een zwart kruis om in te zoomen, op de groene knop met een streepje om uit te zoomen of op de groene pijlen voor aangrenzende kaarten.


METAR-TAF: